createdAt,value
2018-10-18T00:00:52.651Z,84.85
2018-10-18T00:01:52.670Z,84.55
2018-10-18T00:02:52.657Z,84.85
2018-10-18T00:03:52.611Z,85.15
2018-10-18T00:04:52.626Z,84.75
2018-10-18T00:05:52.602Z,84.85
2018-10-18T00:06:52.579Z,85.36
2018-10-18T00:07:52.597Z,84.24
2018-10-18T00:08:52.557Z,84.85
2018-10-18T00:09:52.546Z,85.05
2018-10-18T00:10:52.557Z,85.05
2018-10-18T00:11:52.541Z,85.05
2018-10-18T00:12:52.522Z,85.66
2018-10-18T00:13:52.555Z,85.25
2018-10-18T00:14:52.503Z,85.86
2018-10-18T00:15:52.482Z,85.19
2018-10-18T00:16:52.489Z,85.25
2018-10-18T00:17:52.473Z,85.39
2018-10-18T00:18:52.445Z,85.09
2018-10-18T00:19:52.451Z,85.70
2018-10-18T00:20:52.434Z,85.96
2018-10-18T00:21:52.418Z,86.10
2018-10-18T00:22:52.423Z,85.50
2018-10-18T00:23:52.400Z,85.36
2018-10-18T00:24:52.383Z,85.39
2018-10-18T00:25:52.452Z,85.60
2018-10-18T00:26:52.358Z,84.78
2018-10-18T00:27:52.376Z,85.36
2018-10-18T00:28:52.339Z,85.36
2018-10-18T00:29:52.326Z,85.76
2018-10-18T00:30:52.313Z,85.36
2018-10-18T00:31:52.365Z,85.56
2018-10-18T00:32:52.291Z,85.90
2018-10-18T00:33:52.299Z,85.46
2018-10-18T00:34:52.274Z,85.70
2018-10-18T00:35:52.261Z,86.00
2018-10-18T00:36:52.246Z,85.30
2018-10-18T00:37:52.279Z,85.66
2018-10-18T00:38:52.237Z,85.86
2018-10-18T00:39:52.235Z,85.60
2018-10-18T00:40:52.205Z,85.56
2018-10-18T00:41:52.224Z,84.85
2018-10-18T00:42:52.184Z,85.70
2018-10-18T00:43:52.176Z,85.56
2018-10-18T00:44:52.196Z,85.50
2018-10-18T00:45:52.165Z,85.96
2018-10-18T00:46:52.136Z,85.86
2018-10-18T00:47:52.165Z,85.56
2018-10-18T00:48:52.114Z,84.89
2018-10-18T00:49:52.118Z,85.15
2018-10-18T00:50:52.107Z,85.30
2018-10-18T00:51:52.098Z,85.70
2018-10-18T00:52:52.084Z,85.56
2018-10-18T00:53:52.067Z,85.70
2018-10-18T00:54:52.048Z,84.99
2018-10-18T00:55:52.080Z,85.15
2018-10-18T00:56:52.060Z,85.56
2018-10-18T00:57:52.034Z,85.25
2018-10-18T00:58:52.002Z,85.46
2018-10-18T00:59:52.051Z,85.25
2018-10-18T01:00:51.980Z,85.05
2018-10-18T01:01:52.016Z,85.25
2018-10-18T01:02:51.964Z,85.25
2018-10-18T01:03:51.952Z,85.76
2018-10-18T01:04:51.978Z,84.75
2018-10-18T01:05:51.968Z,85.19
2018-10-18T01:06:51.918Z,85.80
2018-10-18T01:07:51.910Z,85.56
2018-10-18T01:08:51.895Z,85.86
2018-10-18T01:09:51.885Z,85.50
2018-10-18T01:10:51.877Z,84.85
2018-10-18T01:11:51.911Z,85.09
2018-10-18T01:12:51.846Z,85.30
2018-10-18T01:13:51.876Z,85.56
2018-10-18T01:14:51.828Z,85.39
2018-10-18T01:15:51.816Z,85.30
2018-10-18T01:16:51.840Z,84.58
2018-10-18T01:17:51.797Z,84.89
2018-10-18T01:18:51.825Z,85.19
2018-10-18T01:19:51.782Z,84.89
2018-10-18T01:20:51.760Z,85.09
2018-10-18T01:21:51.753Z,85.50
2018-10-18T01:22:51.749Z,85.60
2018-10-18T01:23:51.752Z,85.50
2018-10-18T01:24:51.741Z,85.39
2018-10-18T01:25:51.743Z,85.30
2018-10-18T01:26:51.694Z,85.19
2018-10-18T01:27:51.683Z,84.99
2018-10-18T01:28:51.670Z,84.89
2018-10-18T01:29:51.665Z,84.89
2018-10-18T01:30:51.671Z,85.30
2018-10-18T01:31:51.655Z,85.39
2018-10-18T01:32:51.641Z,85.39
2018-10-18T01:33:51.622Z,84.99
2018-10-18T01:34:51.609Z,85.09
2018-10-18T01:35:51.606Z,84.89
2018-10-18T01:36:51.601Z,84.99
2018-10-18T01:37:51.578Z,84.69
2018-10-18T01:38:51.559Z,84.89
2018-10-18T01:39:51.551Z,85.30
2018-10-18T01:40:51.544Z,85.80
2018-10-18T01:41:51.530Z,85.39
2018-10-18T01:42:51.534Z,85.50
2018-10-18T01:43:51.507Z,85.60
2018-10-18T01:44:51.497Z,85.70
2018-10-18T01:45:51.481Z,85.70
2018-10-18T01:46:51.494Z,85.70
2018-10-18T01:47:51.465Z,85.50
2018-10-18T01:48:51.479Z,85.60
2018-10-18T01:49:51.441Z,85.39
2018-10-18T01:50:51.425Z,85.60
2018-10-18T01:51:51.416Z,85.90
2018-10-18T01:52:51.403Z,85.60
2018-10-18T01:53:51.432Z,85.90
2018-10-18T01:54:51.407Z,85.60
2018-10-18T01:55:51.429Z,86.00
2018-10-18T01:56:51.360Z,85.50
2018-10-18T01:57:51.350Z,85.80
2018-10-18T01:58:51.339Z,85.60
2018-10-18T01:59:51.346Z,85.09
2018-10-18T02:00:51.336Z,84.99
2018-10-18T02:01:51.309Z,84.69
2018-10-18T02:02:51.292Z,84.93
2018-10-18T02:03:51.285Z,85.13
2018-10-18T02:04:51.269Z,85.13
2018-10-18T02:05:51.307Z,85.60
2018-10-18T02:06:51.268Z,84.99
2018-10-18T02:07:51.265Z,84.63
2018-10-18T02:08:51.228Z,85.09
2018-10-18T02:09:51.213Z,84.58
2018-10-18T02:10:51.203Z,85.09
2018-10-18T02:11:51.228Z,84.89
2018-10-18T02:12:51.206Z,85.30
2018-10-18T02:13:51.173Z,85.09
2018-10-18T02:14:51.158Z,84.78
2018-10-18T02:15:51.153Z,84.78
2018-10-18T02:16:51.141Z,85.09
2018-10-18T02:17:51.163Z,85.39
2018-10-18T02:18:51.144Z,84.93
2018-10-18T02:19:51.109Z,85.09
2018-10-18T02:20:51.094Z,84.78
2018-10-18T02:21:51.083Z,84.83
2018-10-18T02:22:51.070Z,84.58
2018-10-18T02:23:51.070Z,84.28
2018-10-18T02:24:51.073Z,84.69
2018-10-18T02:25:51.073Z,84.22
2018-10-18T02:26:51.033Z,84.18
2018-10-18T02:27:51.017Z,84.38
2018-10-18T02:28:51.006Z,84.58
2018-10-18T02:29:50.994Z,84.28
2018-10-18T02:30:51.008Z,83.98
2018-10-18T02:31:50.975Z,84.08
2018-10-18T02:32:50.968Z,83.87
2018-10-18T02:33:50.950Z,83.47
2018-10-18T02:34:50.937Z,83.47
2018-10-18T02:35:50.928Z,83.37
2018-10-18T02:36:50.956Z,83.67
2018-10-18T02:37:50.904Z,83.71
2018-10-18T02:38:50.897Z,83.67
2018-10-18T02:39:50.890Z,83.51
2018-10-18T02:40:50.877Z,83.81
2018-10-18T02:41:50.860Z,83.51
2018-10-18T02:42:50.875Z,83.51
2018-10-18T02:43:50.839Z,83.20
2018-10-18T02:44:50.826Z,84.01
2018-10-18T02:45:50.822Z,83.40
2018-10-18T02:46:50.804Z,84.01
2018-10-18T02:47:50.795Z,84.12
2018-10-18T02:48:50.840Z,84.01
2018-10-18T02:49:50.777Z,84.01
2018-10-18T02:50:50.762Z,83.81
2018-10-18T02:51:50.748Z,83.51
2018-10-18T02:52:50.737Z,83.81
2018-10-18T02:53:50.730Z,83.81
2018-10-18T02:54:50.737Z,83.10
2018-10-18T02:55:50.718Z,83.51
2018-10-18T02:56:50.693Z,82.80
2018-10-18T02:57:50.682Z,82.70
2018-10-18T02:58:50.674Z,81.78
2018-10-18T02:59:50.666Z,82.70
2018-10-18T03:00:50.690Z,82.09
2018-10-18T03:01:50.646Z,82.70
2018-10-18T03:02:50.629Z,83.61
2018-10-18T03:03:50.623Z,83.61
2018-10-18T03:04:50.605Z,82.80
2018-10-18T03:05:50.596Z,82.80
2018-10-18T03:06:50.611Z,82.29
2018-10-18T03:07:50.576Z,82.39
2018-10-18T03:08:50.597Z,82.59
2018-10-18T03:09:50.552Z,82.70
2018-10-18T03:10:50.543Z,82.50
2018-10-18T03:11:50.527Z,82.70
2018-10-18T03:12:50.521Z,82.90
2018-10-18T03:13:50.531Z,83.04
2018-10-18T03:14:50.506Z,82.80
2018-10-18T03:15:50.522Z,82.59
2018-10-18T03:16:50.470Z,82.19
2018-10-18T03:17:50.459Z,82.39
2018-10-18T03:18:50.450Z,82.90
2018-10-18T03:19:50.451Z,82.70
2018-10-18T03:20:50.435Z,82.70
2018-10-18T03:21:50.441Z,82.90
2018-10-18T03:22:50.411Z,82.59
2018-10-18T03:23:50.393Z,82.90
2018-10-18T03:24:50.387Z,82.70
2018-10-18T03:25:50.382Z,82.59
2018-10-18T03:26:50.366Z,83.10
2018-10-18T03:27:50.402Z,83.00
2018-10-18T03:28:50.343Z,82.90
2018-10-18T03:29:50.329Z,82.70
2018-10-18T03:30:50.321Z,83.00
2018-10-18T03:31:50.311Z,82.70
2018-10-18T03:32:50.330Z,82.33
2018-10-18T03:33:50.323Z,83.14
2018-10-18T03:34:50.279Z,83.65
2018-10-18T03:35:50.262Z,83.14
2018-10-18T03:36:50.251Z,83.75
2018-10-18T03:37:50.246Z,82.94
2018-10-18T03:38:50.230Z,83.69
2018-10-18T03:39:50.245Z,83.85
2018-10-18T03:40:50.221Z,83.79
2018-10-18T03:41:50.206Z,83.69
2018-10-18T03:42:50.187Z,83.59
2018-10-18T03:43:50.176Z,83.99
2018-10-18T03:44:50.165Z,84.23
2018-10-18T03:45:50.188Z,84.09
2018-10-18T03:46:50.147Z,84.23
2018-10-18T03:47:50.164Z,84.23
2018-10-18T03:48:50.117Z,84.34
2018-10-18T03:49:50.109Z,84.34
2018-10-18T03:50:50.097Z,84.44
2018-10-18T03:51:50.108Z,84.64
2018-10-18T03:52:50.071Z,85.05
2018-10-18T03:53:50.076Z,84.74
2018-10-18T03:54:50.053Z,84.74
2018-10-18T03:55:50.044Z,85.46
2018-10-18T03:56:50.030Z,84.84
2018-10-18T03:57:50.045Z,85.15
2018-10-18T03:58:50.006Z,84.95
2018-10-18T03:59:50.083Z,85.15
2018-10-18T04:00:49.986Z,85.05
2018-10-18T04:01:49.974Z,84.95
2018-10-18T04:02:49.959Z,85.49
2018-10-18T04:03:49.966Z,85.05
2018-10-18T04:04:49.942Z,85.60
2018-10-18T04:05:49.936Z,84.74
2018-10-18T04:06:49.919Z,85.49
2018-10-18T04:07:49.912Z,84.88
2018-10-18T04:08:49.902Z,84.88
2018-10-18T04:09:49.904Z,84.78
2018-10-18T04:10:49.877Z,84.78
2018-10-18T04:11:49.872Z,84.58
2018-10-18T04:12:49.906Z,84.78
2018-10-18T04:13:49.845Z,84.88
2018-10-18T04:14:49.834Z,84.58
2018-10-18T04:15:49.839Z,85.13
2018-10-18T04:16:49.813Z,84.82
2018-10-18T04:17:49.803Z,85.03
2018-10-18T04:18:49.793Z,85.13
2018-10-18T04:19:49.780Z,85.53
2018-10-18T04:20:49.771Z,85.33
2018-10-18T04:21:49.778Z,85.23
2018-10-18T04:22:49.740Z,85.78
2018-10-18T04:23:49.730Z,84.92
2018-10-18T04:24:49.718Z,84.82
2018-10-18T04:25:49.724Z,85.17
2018-10-18T04:26:49.699Z,85.94
2018-10-18T04:27:49.711Z,85.17
2018-10-18T04:28:49.681Z,85.37
2018-10-18T04:29:49.665Z,85.47
2018-10-18T04:30:49.654Z,85.78
2018-10-18T04:31:49.640Z,85.78
2018-10-18T04:32:49.630Z,85.88
2018-10-18T04:33:49.630Z,85.68
2018-10-18T04:34:49.633Z,85.78
2018-10-18T04:35:49.608Z,86.08
2018-10-18T04:36:49.591Z,85.82
2018-10-18T04:37:49.583Z,85.72
2018-10-18T04:38:49.571Z,85.61
2018-10-18T04:39:49.579Z,85.86
2018-10-18T04:40:49.551Z,85.11
2018-10-18T04:41:49.538Z,85.41
2018-10-18T04:42:49.526Z,86.13
2018-10-18T04:43:49.514Z,85.35
2018-10-18T04:44:49.515Z,85.14
2018-10-18T04:45:49.490Z,85.55
2018-10-18T04:46:49.477Z,85.86
2018-10-18T04:47:49.684Z,85.66
2018-10-18T04:48:49.551Z,86.16
2018-10-18T04:49:49.443Z,84.94
2018-10-18T04:50:49.448Z,84.94
2018-10-18T04:51:49.425Z,86.00
2018-10-18T04:52:49.413Z,86.21
2018-10-18T04:53:49.402Z,86.30
2018-10-18T04:54:49.386Z,86.10
2018-10-18T04:55:49.374Z,86.10
2018-10-18T04:56:49.417Z,86.30
2018-10-18T04:57:49.353Z,86.21
2018-10-18T04:58:49.350Z,86.21
2018-10-18T04:59:49.338Z,85.90
2018-10-18T05:00:49.323Z,86.45
2018-10-18T05:01:49.326Z,86.24
2018-10-18T05:02:49.365Z,86.35
2018-10-18T05:03:49.292Z,86.21
2018-10-18T05:04:49.313Z,85.69
2018-10-18T05:05:49.265Z,85.69
2018-10-18T05:06:49.257Z,86.55
2018-10-18T05:07:49.251Z,86.45
2018-10-18T05:08:49.256Z,86.76
2018-10-18T05:09:49.236Z,87.06
2018-10-18T05:10:49.220Z,87.02
2018-10-18T05:11:49.228Z,87.57
2018-10-18T05:12:49.268Z,87.77
2018-10-18T05:13:49.186Z,88.24
2018-10-18T05:14:49.198Z,88.55
2018-10-18T05:15:49.163Z,88.14
2018-10-18T05:16:49.163Z,88.49
2018-10-18T05:17:49.140Z,88.45
2018-10-18T05:18:49.135Z,88.65
2018-10-18T05:19:49.116Z,88.14
2018-10-18T05:20:49.133Z,87.32
2018-10-18T05:21:49.093Z,88.04
2018-10-18T05:22:49.089Z,87.23
2018-10-18T05:23:49.150Z,87.12
2018-10-18T05:24:49.069Z,87.43
2018-10-18T05:25:49.053Z,87.12
2018-10-18T05:26:49.053Z,87.12
2018-10-18T05:27:49.023Z,87.43
2018-10-18T05:28:49.018Z,87.73
2018-10-18T05:29:49.005Z,87.02
2018-10-18T05:30:48.995Z,86.41
2018-10-18T05:31:49.098Z,86.61
2018-10-18T05:32:48.990Z,86.65
2018-10-18T05:33:48.957Z,86.96
2018-10-18T05:34:48.947Z,86.96
2018-10-18T05:35:48.934Z,86.86
2018-10-18T05:36:48.925Z,86.86
2018-10-18T05:37:48.956Z,86.65
2018-10-18T05:38:48.939Z,86.45
2018-10-18T05:39:48.893Z,86.96
2018-10-18T05:40:48.880Z,86.65
2018-10-18T05:41:48.870Z,87.06
2018-10-18T05:42:48.860Z,86.96
2018-10-18T05:43:48.847Z,86.59
2018-10-18T05:44:48.903Z,86.69
2018-10-18T05:45:48.830Z,87.00
2018-10-18T05:46:48.928Z,87.10
2018-10-18T05:47:48.808Z,86.90
2018-10-18T05:48:48.805Z,86.69
2018-10-18T05:49:48.800Z,86.18
2018-10-18T05:50:48.818Z,86.80
2018-10-18T05:51:48.772Z,86.59
2018-10-18T05:52:48.808Z,86.69
2018-10-18T05:53:48.856Z,86.90
2018-10-18T05:54:48.741Z,86.94
2018-10-18T05:55:48.720Z,87.20
2018-10-18T05:56:48.731Z,87.30
2018-10-18T05:57:48.694Z,87.55
2018-10-18T05:58:48.716Z,87.65
2018-10-18T05:59:48.674Z,87.71
2018-10-18T06:00:48.669Z,88.17
2018-10-18T06:01:48.653Z,87.82
2018-10-18T06:02:48.661Z,88.53
2018-10-18T06:03:48.645Z,88.47
2018-10-18T06:04:48.615Z,88.22
2018-10-18T06:05:48.627Z,88.63
2018-10-18T06:06:48.592Z,88.63
2018-10-18T06:07:48.585Z,88.32
2018-10-18T06:08:48.590Z,88.12
2018-10-18T06:09:48.621Z,88.63
2018-10-18T06:10:48.552Z,89.04
2018-10-18T06:11:48.539Z,88.84
2018-10-18T06:12:48.534Z,89.25
2018-10-18T06:13:48.529Z,89.04
2018-10-18T06:14:48.532Z,88.84
2018-10-18T06:15:48.496Z,88.73
2018-10-18T06:16:48.486Z,89.20
2018-10-18T06:17:48.483Z,89.71
2018-10-18T06:18:48.462Z,90.01
2018-10-18T06:19:48.451Z,89.40
2018-10-18T06:20:48.469Z,90.12
2018-10-18T06:21:48.437Z,89.00
2018-10-18T06:22:48.485Z,89.20
2018-10-18T06:23:48.407Z,89.40
2018-10-18T06:24:48.395Z,89.51
2018-10-18T06:25:48.384Z,89.67
2018-10-18T06:26:48.391Z,90.08
2018-10-18T06:27:48.368Z,90.28
2018-10-18T06:28:48.357Z,89.87
2018-10-18T06:29:48.341Z,89.77
2018-10-18T06:30:48.330Z,90.08
2018-10-18T06:31:48.320Z,90.48
2018-10-18T06:32:48.340Z,89.47
2018-10-18T06:33:48.299Z,89.06
2018-10-18T06:34:48.298Z,89.57
2018-10-18T06:35:48.282Z,89.97
2018-10-18T06:36:48.268Z,89.83
2018-10-18T06:37:48.257Z,89.63
2018-10-18T06:38:48.261Z,89.97
2018-10-18T06:39:48.263Z,89.97
2018-10-18T06:40:48.236Z,89.47
2018-10-18T06:41:48.212Z,89.57
2018-10-18T06:42:48.198Z,89.36
2018-10-18T06:43:48.211Z,89.16
2018-10-18T06:44:48.179Z,89.06
2018-10-18T06:45:48.177Z,89.67
2018-10-18T06:46:48.221Z,89.26
2018-10-18T06:47:48.276Z,89.16
2018-10-18T06:48:48.162Z,89.97
2018-10-18T06:49:48.144Z,89.73
2018-10-18T06:50:48.113Z,90.44
2018-10-18T06:51:48.103Z,90.03
2018-10-18T06:52:48.092Z,90.34
2018-10-18T06:53:48.083Z,90.14
2018-10-18T06:54:48.068Z,89.94
2018-10-18T06:55:48.078Z,89.99
2018-10-18T06:56:48.051Z,89.79
2018-10-18T06:57:48.050Z,90.20
2018-10-18T06:58:48.057Z,89.94
2018-10-18T06:59:48.039Z,89.89
2018-10-18T07:00:48.011Z,90.24
2018-10-18T07:01:48.010Z,89.89
2018-10-18T07:02:47.983Z,89.89
2018-10-18T07:03:47.978Z,90.30
2018-10-18T07:04:47.957Z,90.30
2018-10-18T07:05:47.971Z,90.14
2018-10-18T07:06:47.979Z,90.09
2018-10-18T07:07:47.942Z,90.03
2018-10-18T07:08:47.950Z,90.44
2018-10-18T07:09:47.908Z,90.20
2018-10-18T07:10:47.963Z,90.09
2018-10-18T07:11:47.881Z,91.16
2018-10-18T07:12:47.874Z,91.42
2018-10-18T07:13:47.882Z,91.26
2018-10-18T07:14:47.853Z,90.95
2018-10-18T07:15:47.837Z,91.11
2018-10-18T07:16:47.833Z,91.22
2018-10-18T07:17:47.861Z,91.26
2018-10-18T07:18:47.813Z,91.11
2018-10-18T07:19:47.834Z,91.72
2018-10-18T07:20:47.793Z,91.11
2018-10-18T07:21:47.789Z,91.72
2018-10-18T07:22:47.761Z,91.42
2018-10-18T07:23:47.754Z,91.17
2018-10-18T07:24:47.749Z,90.20
2018-10-18T07:25:47.730Z,91.42
2018-10-18T07:26:47.719Z,91.11
2018-10-18T07:27:47.735Z,91.31
2018-10-18T07:28:47.704Z,90.50
2018-10-18T07:29:47.720Z,91.22
2018-10-18T07:30:47.694Z,91.01
2018-10-18T07:31:47.666Z,91.83
2018-10-18T07:32:47.649Z,91.11
2018-10-18T07:33:47.633Z,92.13
2018-10-18T07:34:47.623Z,91.31
2018-10-18T07:35:47.620Z,91.52
2018-10-18T07:36:47.633Z,91.31
2018-10-18T07:37:47.600Z,91.93
2018-10-18T07:38:47.582Z,92.23
2018-10-18T07:39:47.573Z,92.13
2018-10-18T07:40:47.562Z,92.13
2018-10-18T07:41:47.545Z,92.44
2018-10-18T07:42:47.565Z,91.42
2018-10-18T07:43:47.536Z,92.03
2018-10-18T07:44:47.512Z,92.13
2018-10-18T07:45:47.502Z,91.88
2018-10-18T07:46:47.511Z,92.29
2018-10-18T07:47:47.490Z,91.68
2018-10-18T07:48:47.491Z,91.48
2018-10-18T07:49:47.460Z,91.38
2018-10-18T07:50:47.449Z,91.68
2018-10-18T07:51:47.443Z,91.33
2018-10-18T07:52:47.456Z,91.07
2018-10-18T07:53:47.436Z,90.83
2018-10-18T07:54:47.408Z,90.52
2018-10-18T07:55:47.395Z,91.03
2018-10-18T07:56:47.383Z,90.86
2018-10-18T07:57:47.374Z,91.68
2018-10-18T07:58:47.361Z,91.58
2018-10-18T07:59:47.405Z,91.68
2018-10-18T08:00:47.525Z,92.09
2018-10-18T08:01:47.328Z,92.35
2018-10-18T08:02:47.318Z,92.14
2018-10-18T08:03:47.308Z,91.84
2018-10-18T08:04:47.298Z,91.94
2018-10-18T08:05:47.291Z,91.23
2018-10-18T08:06:47.293Z,91.43
2018-10-18T08:07:47.263Z,91.23
2018-10-18T08:08:47.254Z,91.43
2018-10-18T08:09:47.287Z,91.13
2018-10-18T08:10:47.268Z,91.13
2018-10-18T08:11:47.215Z,91.23
2018-10-18T08:12:47.219Z,91.43
2018-10-18T08:13:47.196Z,91.64
2018-10-18T08:14:47.188Z,90.58
2018-10-18T08:15:47.181Z,91.19
2018-10-18T08:16:47.206Z,91.60
2018-10-18T08:17:47.159Z,90.68
2018-10-18T08:18:47.155Z,90.53
2018-10-18T08:19:47.133Z,90.03
2018-10-18T08:20:47.130Z,89.92
2018-10-18T08:21:47.119Z,89.83
2018-10-18T08:22:47.096Z,89.83
2018-10-18T08:23:47.105Z,89.72
2018-10-18T08:24:47.084Z,89.83
2018-10-18T08:25:47.068Z,90.07
2018-10-18T08:26:47.051Z,89.92
2018-10-18T08:27:47.047Z,90.03
2018-10-18T08:28:47.034Z,89.92
2018-10-18T08:29:47.034Z,89.87
2018-10-18T08:30:47.014Z,89.56
2018-10-18T08:31:47.087Z,90.48
2018-10-18T08:32:46.982Z,91.19
2018-10-18T08:33:46.980Z,90.84
2018-10-18T08:34:46.985Z,91.25
2018-10-18T08:35:46.976Z,90.94
2018-10-18T08:36:46.938Z,91.14
2018-10-18T08:37:47.096Z,91.14
2018-10-18T08:38:46.917Z,91.35
2018-10-18T08:39:46.907Z,91.14
2018-10-18T08:40:46.898Z,92.16
2018-10-18T08:41:46.906Z,92.00
2018-10-18T08:42:46.875Z,92.06
2018-10-18T08:43:46.870Z,92.06
2018-10-18T08:44:46.856Z,92.16
2018-10-18T08:45:46.839Z,92.87
2018-10-18T08:46:46.833Z,91.96
2018-10-18T08:47:46.856Z,92.36
2018-10-18T08:48:46.809Z,91.96
2018-10-18T08:49:46.876Z,91.96
2018-10-18T08:50:46.789Z,91.75
2018-10-18T08:51:46.777Z,91.86
2018-10-18T08:52:46.785Z,91.96
2018-10-18T08:53:46.760Z,91.96
2018-10-18T08:54:46.756Z,92.22
2018-10-18T08:55:46.738Z,93.03
2018-10-18T08:56:46.730Z,92.72
2018-10-18T08:57:46.718Z,92.16
2018-10-18T08:58:46.740Z,91.82
2018-10-18T08:59:46.715Z,91.82
2018-10-18T09:00:46.690Z,91.75
2018-10-18T09:01:46.674Z,91.91
2018-10-18T09:02:46.658Z,92.22
2018-10-18T09:03:46.645Z,91.30
2018-10-18T09:04:46.653Z,92.26
2018-10-18T09:05:46.625Z,91.71
2018-10-18T09:06:46.627Z,91.75
2018-10-18T09:07:46.613Z,91.86
2018-10-18T09:08:46.588Z,92.06
2018-10-18T09:09:46.579Z,92.06
2018-10-18T09:10:46.585Z,91.71
2018-10-18T09:11:46.560Z,91.05
2018-10-18T09:12:46.551Z,91.96
2018-10-18T09:13:46.543Z,91.00
2018-10-18T09:14:46.531Z,91.82
2018-10-18T09:15:46.561Z,92.02
2018-10-18T09:16:46.528Z,92.22
2018-10-18T09:17:46.490Z,92.72
2018-10-18T09:18:46.475Z,92.89
2018-10-18T09:19:46.472Z,91.91
2018-10-18T09:20:46.452Z,91.41
2018-10-18T09:21:46.441Z,92.18
2018-10-18T09:22:46.448Z,91.77
2018-10-18T09:23:46.464Z,91.67
2018-10-18T09:24:46.414Z,91.97
2018-10-18T09:25:46.406Z,91.87
2018-10-18T09:26:46.387Z,91.67
2018-10-18T09:27:46.374Z,91.87
2018-10-18T09:28:46.389Z,90.86
2018-10-18T09:29:46.362Z,91.36
2018-10-18T09:30:46.341Z,91.67
2018-10-18T09:31:46.350Z,91.47
2018-10-18T09:32:46.333Z,91.20
2018-10-18T09:33:46.336Z,91.10
2018-10-18T09:34:46.325Z,91.10
2018-10-18T09:35:46.298Z,91.51
2018-10-18T09:36:46.283Z,91.47
2018-10-18T09:37:46.273Z,93.13
2018-10-18T09:38:46.256Z,92.02
2018-10-18T09:39:46.250Z,92.02
2018-10-18T09:40:46.254Z,91.91
2018-10-18T09:41:46.228Z,92.42
2018-10-18T09:42:46.233Z,92.02
2018-10-18T09:43:46.205Z,92.22
2018-10-18T09:44:46.233Z,92.99
2018-10-18T09:45:46.208Z,92.02
2018-10-18T09:46:46.195Z,91.71
2018-10-18T09:47:46.165Z,91.97
2018-10-18T09:48:46.153Z,92.42
2018-10-18T09:49:46.146Z,92.18
2018-10-18T09:50:46.134Z,92.58
2018-10-18T09:51:46.137Z,92.68
2018-10-18T09:52:46.189Z,91.77
2018-10-18T09:53:46.090Z,91.77
2018-10-18T09:54:46.094Z,91.97
2018-10-18T09:55:46.094Z,91.87
2018-10-18T09:56:46.059Z,91.77
2018-10-18T09:57:46.051Z,91.83
2018-10-18T09:58:46.053Z,91.06
2018-10-18T09:59:46.040Z,91.12
2018-10-18T10:00:46.012Z,91.42
2018-10-18T10:01:45.999Z,91.02
2018-10-18T10:02:45.990Z,91.52
2018-10-18T10:03:45.988Z,90.61
2018-10-18T10:04:45.993Z,89.50
2018-10-18T10:05:45.963Z,91.02
2018-10-18T10:06:45.943Z,91.17
2018-10-18T10:07:45.933Z,90.36
2018-10-18T10:08:45.926Z,89.65
2018-10-18T10:09:45.918Z,89.72
2018-10-18T10:10:45.919Z,89.65
2018-10-18T10:11:46.027Z,89.72
2018-10-18T10:12:45.887Z,89.41
2018-10-18T10:13:45.937Z,89.41
2018-10-18T10:14:54.471Z,88.86
2018-10-18T10:15:45.860Z,89.51
2018-10-18T10:16:45.864Z,89.67
2018-10-18T10:17:45.915Z,90.18
2018-10-18T10:18:45.811Z,88.29
2018-10-18T10:19:45.812Z,89.47
2018-10-18T10:20:45.801Z,89.41
2018-10-18T10:21:45.777Z,88.70
2018-10-18T10:22:45.793Z,88.80
2018-10-18T10:23:45.764Z,87.85
2018-10-18T10:24:45.882Z,87.54
2018-10-18T10:25:45.742Z,88.35
2018-10-18T10:26:45.758Z,87.59
2018-10-18T10:27:45.716Z,87.69
2018-10-18T10:28:45.744Z,87.79
2018-10-18T10:29:45.710Z,87.99
2018-10-18T10:30:45.679Z,87.99
2018-10-18T10:31:45.673Z,88.25
2018-10-18T10:32:45.745Z,88.76
2018-10-18T10:33:45.666Z,86.98
2018-10-18T10:34:45.657Z,87.48
2018-10-18T10:35:45.756Z,86.61
2018-10-18T10:36:45.613Z,86.71
2018-10-18T10:37:45.601Z,87.89
2018-10-18T10:38:45.623Z,88.03
2018-10-18T10:39:45.619Z,87.93
2018-10-18T10:40:45.574Z,87.63
2018-10-18T10:41:45.557Z,86.31
2018-10-18T10:42:45.615Z,86.91
2018-10-18T10:43:45.535Z,87.63
2018-10-18T10:44:45.593Z,88.40
2018-10-18T10:45:45.600Z,87.99
2018-10-18T10:46:45.541Z,87.79
2018-10-18T10:47:45.495Z,87.04
2018-10-18T10:48:45.495Z,86.98
2018-10-18T10:49:45.482Z,86.22
2018-10-18T10:50:45.491Z,86.16
2018-10-18T10:51:45.456Z,86.98
2018-10-18T10:52:45.464Z,86.33
2018-10-18T10:53:45.442Z,86.22
2018-10-18T10:54:45.443Z,86.43
2018-10-18T10:55:45.405Z,86.02
2018-10-18T10:56:45.394Z,84.81
2018-10-18T10:57:45.395Z,85.82
2018-10-18T10:58:45.425Z,85.21
2018-10-18T10:59:45.373Z,84.61
2018-10-18T11:00:45.362Z,86.19
2018-10-18T11:01:45.357Z,86.59
2018-10-18T11:02:45.325Z,85.78
2018-10-18T11:03:45.317Z,85.62
2018-10-18T11:04:45.325Z,86.22
2018-10-18T11:05:45.293Z,85.52
2018-10-18T11:06:45.316Z,83.80
2018-10-18T11:07:45.278Z,83.29
2018-10-18T11:08:45.259Z,84.30
2018-10-18T11:09:45.341Z,84.10
2018-10-18T11:10:45.245Z,85.48
2018-10-18T11:11:45.282Z,85.48
2018-10-18T11:12:45.233Z,86.08
2018-10-18T11:13:45.223Z,85.68
2018-10-18T11:14:45.250Z,84.67
2018-10-18T11:15:45.179Z,84.06
2018-10-18T11:16:45.169Z,83.90
2018-10-18T11:17:45.159Z,83.96
2018-10-18T11:18:45.166Z,83.86
2018-10-18T11:19:45.153Z,84.30
2018-10-18T11:20:45.129Z,85.17
2018-10-18T11:21:45.169Z,85.01
2018-10-18T11:22:45.102Z,85.17
2018-10-18T11:23:45.091Z,84.16
2018-10-18T11:24:45.183Z,84.67
2018-10-18T11:25:45.090Z,84.73
2018-10-18T11:26:45.065Z,83.92
2018-10-18T11:27:45.045Z,83.92
2018-10-18T11:28:45.034Z,83.51
2018-10-18T11:29:45.025Z,82.30
2018-10-18T11:30:45.034Z,82.70
2018-10-18T11:31:45.027Z,83.15
2018-10-18T11:32:44.991Z,83.76
2018-10-18T11:33:44.981Z,83.65
2018-10-18T11:34:44.969Z,83.35
2018-10-18T11:35:44.961Z,84.67
2018-10-18T11:36:44.959Z,84.36
2018-10-18T11:37:44.969Z,83.86
2018-10-18T11:38:44.923Z,82.98
2018-10-18T11:39:44.914Z,83.45
2018-10-18T11:40:44.903Z,83.86
2018-10-18T11:41:44.910Z,84.10
2018-10-18T11:42:44.963Z,83.65
2018-10-18T11:43:44.889Z,84.00
2018-10-18T11:44:44.858Z,83.76
2018-10-18T11:45:44.846Z,83.69
2018-10-18T11:46:44.836Z,83.76
2018-10-18T11:47:44.842Z,83.25
2018-10-18T11:48:44.830Z,83.76
2018-10-18T11:49:44.803Z,83.86
2018-10-18T11:50:44.797Z,82.54
2018-10-18T11:51:44.963Z,82.44
2018-10-18T11:52:44.768Z,83.55
2018-10-18T11:53:44.816Z,83.96
2018-10-18T11:54:44.765Z,81.59
2018-10-18T11:55:44.741Z,80.62
2018-10-18T11:56:44.731Z,82.03
2018-10-18T11:57:44.714Z,81.99
2018-10-18T11:58:44.704Z,81.49
2018-10-18T11:59:44.706Z,81.49
2018-10-18T12:00:44.697Z,80.88
2018-10-18T12:01:44.688Z,80.82
2018-10-18T12:02:44.713Z,81.39
2018-10-18T12:03:44.644Z,82.70
2018-10-18T12:04:44.635Z,82.24
2018-10-18T12:05:44.627Z,81.69
2018-10-18T12:06:44.627Z,82.24
2018-10-18T12:07:44.617Z,81.23
2018-10-18T12:08:44.595Z,82.64
2018-10-18T12:09:44.581Z,81.63
2018-10-18T12:10:44.567Z,82.24
2018-10-18T12:11:44.563Z,81.02
2018-10-18T12:12:44.563Z,82.58
2018-10-18T12:13:44.553Z,82.28
2018-10-18T12:14:44.523Z,82.28
2018-10-18T12:15:44.512Z,81.83
2018-10-18T12:16:44.499Z,82.03
2018-10-18T12:17:44.491Z,82.54
2018-10-18T12:18:44.510Z,80.72
2018-10-18T12:19:44.484Z,80.76
2018-10-18T12:20:44.459Z,79.94
2018-10-18T12:21:44.463Z,80.96
2018-10-18T12:22:44.434Z,82.17
2018-10-18T12:23:44.423Z,82.17
2018-10-18T12:24:44.435Z,81.43
2018-10-18T12:25:44.401Z,81.87
2018-10-18T12:26:44.433Z,81.93
2018-10-18T12:27:44.398Z,80.25
2018-10-18T12:28:44.368Z,80.55
2018-10-18T12:29:44.357Z,81.43
2018-10-18T12:30:44.363Z,82.17
2018-10-18T12:31:44.334Z,80.05
2018-10-18T12:32:44.324Z,80.62
2018-10-18T12:33:44.333Z,81.83
2018-10-18T12:34:44.301Z,81.73
2018-10-18T12:35:44.290Z,80.62
2018-10-18T12:36:44.310Z,80.82
2018-10-18T12:37:44.270Z,80.52
2018-10-18T12:38:44.255Z,80.27
2018-10-18T12:39:44.429Z,79.00
2018-10-18T12:40:44.292Z,79.40
2018-10-18T12:41:44.365Z,79.91
2018-10-18T12:42:44.226Z,80.01
2018-10-18T12:43:44.251Z,79.06
2018-10-18T12:44:44.224Z,78.49
2018-10-18T12:45:44.190Z,79.00
2018-10-18T12:46:44.171Z,79.40
2018-10-18T12:47:44.156Z,79.20
2018-10-18T12:48:44.204Z,79.00
2018-10-18T12:49:44.136Z,79.00
2018-10-18T12:50:44.151Z,79.20
2018-10-18T12:51:44.113Z,79.50
2018-10-18T12:52:44.103Z,80.01